sensor_id;sensor_type;location;lat;lon;timestamp;pressure;altitude;pressure_sealevel;temperature;humidity
49461;BME280;35355;49.198;-0.368;2023-02-12T00:01:00;103144.03;;;7.96;86.02
49461;BME280;35355;49.198;-0.368;2023-02-12T00:03:26;103140.50;;;7.95;86.25
49461;BME280;35355;49.198;-0.368;2023-02-12T00:05:51;103147.63;;;7.96;86.14
49461;BME280;35355;49.198;-0.368;2023-02-12T00:08:16;103144.03;;;7.96;85.76
49461;BME280;35355;49.198;-0.368;2023-02-12T00:10:42;103140.31;;;7.97;85.77
49461;BME280;35355;49.198;-0.368;2023-02-12T00:13:09;103135.53;;;7.99;85.93
49461;BME280;35355;49.198;-0.368;2023-02-12T00:15:39;103137.22;;;8.00;85.80
49461;BME280;35355;49.198;-0.368;2023-02-12T00:18:04;103130.44;;;7.96;85.65
49461;BME280;35355;49.198;-0.368;2023-02-12T00:20:30;103136.75;;;7.96;86.15
49461;BME280;35355;49.198;-0.368;2023-02-12T00:22:56;103131.69;;;7.93;86.05
49461;BME280;35355;49.198;-0.368;2023-02-12T00:25:21;103139.66;;;7.95;85.78
49461;BME280;35355;49.198;-0.368;2023-02-12T00:27:46;103124.72;;;7.90;86.11
49461;BME280;35355;49.198;-0.368;2023-02-12T00:30:12;103131.19;;;7.89;85.63
49461;BME280;35355;49.198;-0.368;2023-02-12T00:32:37;103134.97;;;7.88;85.63
49461;BME280;35355;49.198;-0.368;2023-02-12T00:35:03;103134.97;;;7.88;86.15
49461;BME280;35355;49.198;-0.368;2023-02-12T00:37:28;103121.56;;;7.87;85.93
49461;BME280;35355;49.198;-0.368;2023-02-12T00:39:53;103120.69;;;7.86;85.95
49461;BME280;35355;49.198;-0.368;2023-02-12T00:42:19;103127.81;;;7.87;85.74
49461;BME280;35355;49.198;-0.368;2023-02-12T00:44:44;103126.63;;;7.90;85.46
49461;BME280;35355;49.198;-0.368;2023-02-12T00:47:09;103125.75;;;7.89;85.94
49461;BME280;35355;49.198;-0.368;2023-02-12T00:49:35;103131.19;;;7.89;85.54
49461;BME280;35355;49.198;-0.368;2023-02-12T00:52:01;103125.75;;;7.89;85.97
49461;BME280;35355;49.198;-0.368;2023-02-12T00:54:28;103124.09;;;7.88;85.84
49461;BME280;35355;49.198;-0.368;2023-02-12T00:56:54;103116.31;;;7.85;85.98
49461;BME280;35355;49.198;-0.368;2023-02-12T00:59:21;103124.09;;;7.88;85.83
49461;BME280;35355;49.198;-0.368;2023-02-12T01:01:46;103131.19;;;7.89;85.56
49461;BME280;35355;49.198;-0.368;2023-02-12T01:04:11;103126.81;;;7.88;85.43
49461;BME280;35355;49.198;-0.368;2023-02-12T01:06:37;103122.38;;;7.87;86.02
49461;BME280;35355;49.198;-0.368;2023-02-12T01:09:02;103128.47;;;7.89;85.85
49461;BME280;35355;49.198;-0.368;2023-02-12T01:11:28;103120.31;;;7.89;85.45
49461;BME280;35355;49.198;-0.368;2023-02-12T01:13:53;103115.25;;;7.86;85.74
49461;BME280;35355;49.198;-0.368;2023-02-12T01:16:22;103117.78;;;7.88;85.45
49461;BME280;35355;49.198;-0.368;2023-02-12T01:18:49;103118.66;;;7.88;85.68
49461;BME280;35355;49.198;-0.368;2023-02-12T01:21:18;103113.22;;;7.88;85.51
49461;BME280;35355;49.198;-0.368;2023-02-12T01:23:44;103119.47;;;7.89;85.47
49461;BME280;35355;49.198;-0.368;2023-02-12T01:26:11;103113.84;;;7.90;85.47
49461;BME280;35355;49.198;-0.368;2023-02-12T01:28:38;103105.69;;;7.90;85.55
49461;BME280;35355;49.198;-0.368;2023-02-12T01:31:13;103102.97;;;7.90;85.20
49461;BME280;35355;49.198;-0.368;2023-02-12T01:33:39;103107.78;;;7.88;84.94
49461;BME280;35355;49.198;-0.368;2023-02-12T01:36:05;103100.25;;;7.90;85.37
49461;BME280;35355;49.198;-0.368;2023-02-12T01:38:30;103108.59;;;7.89;85.48
49461;BME280;35355;49.198;-0.368;2023-02-12T01:43:29;103104.38;;;7.86;84.95
49461;BME280;35355;49.198;-0.368;2023-02-12T01:45:54;103105.41;;;7.85;85.32
49461;BME280;35355;49.198;-0.368;2023-02-12T01:48:22;103099.13;;;7.85;85.27
49461;BME280;35355;49.198;-0.368;2023-02-12T01:50:50;103100.50;;;7.81;85.27
49461;BME280;35355;49.198;-0.368;2023-02-12T01:53:17;103098.66;;;7.81;85.42
49461;BME280;35355;49.198;-0.368;2023-02-12T01:55:50;103099.31;;;7.83;85.08
49461;BME280;35355;49.198;-0.368;2023-02-12T01:58:16;103104.09;;;7.81;85.49
49461;BME280;35355;49.198;-0.368;2023-02-12T02:00:42;103106.44;;;7.84;84.97
49461;BME280;35355;49.198;-0.368;2023-02-12T02:03:08;103104.56;;;7.85;85.08
49461;BME280;35355;49.198;-0.368;2023-02-12T02:06:02;103099.97;;;7.85;85.21
49461;BME280;35355;49.198;-0.368;2023-02-12T02:08:28;103102.22;;;7.82;84.75
49461;BME280;35355;49.198;-0.368;2023-02-12T02:10:54;103099.31;;;7.83;84.80
49461;BME280;35355;49.198;-0.368;2023-02-12T02:13:20;103100.13;;;7.84;85.08
49461;BME280;35355;49.198;-0.368;2023-02-12T02:16:30;103101.66;;;7.86;84.85
49461;BME280;35355;49.198;-0.368;2023-02-12T02:22:17;103095.56;;;7.84;84.87
49461;BME280;35355;49.198;-0.368;2023-02-12T02:27:32;103091.81;;;7.85;84.59
49461;BME280;35355;49.198;-0.368;2023-02-12T02:32:49;103091.97;;;7.84;84.89
49461;BME280;35355;49.198;-0.368;2023-02-12T02:35:32;103090.31;;;7.83;84.61
49461;BME280;35355;49.198;-0.368;2023-02-12T02:38:22;103089.25;;;7.84;84.88
49461;BME280;35355;49.198;-0.368;2023-02-12T02:41:01;103086.09;;;7.80;84.55
49461;BME280;35355;49.198;-0.368;2023-02-12T02:43:32;103092.16;;;7.82;84.81
49461;BME280;35355;49.198;-0.368;2023-02-12T02:46:06;103090.50;;;7.81;84.48
49461;BME280;35355;49.198;-0.368;2023-02-12T02:48:36;103078.94;;;7.79;84.98
49461;BME280;35355;49.198;-0.368;2023-02-12T02:51:13;103088.63;;;7.82;84.41
49461;BME280;35355;49.198;-0.368;2023-02-12T02:53:51;103077.94;;;7.80;84.41
49461;BME280;35355;49.198;-0.368;2023-02-12T02:56:20;103082.53;;;7.80;84.37
49461;BME280;35355;49.198;-0.368;2023-02-12T02:58:52;103080.19;;;7.77;84.70
49461;BME280;35355;49.198;-0.368;2023-02-12T03:01:24;103084.75;;;7.76;84.82
49461;BME280;35355;49.198;-0.368;2023-02-12T03:03:58;103074.94;;;7.75;84.57
49461;BME280;35355;49.198;-0.368;2023-02-12T03:06:31;103076.78;;;7.75;84.80
49461;BME280;35355;49.198;-0.368;2023-02-12T03:09:02;103082.22;;;7.75;84.40
49461;BME280;35355;49.198;-0.368;2023-02-12T03:11:32;103074.94;;;7.75;85.00
49461;BME280;35355;49.198;-0.368;2023-02-12T03:16:40;103058.13;;;7.71;84.44
49461;BME280;35355;49.198;-0.368;2023-02-12T03:19:24;103058.97;;;7.72;84.84
49461;BME280;35355;49.198;-0.368;2023-02-12T03:21:57;103057.31;;;7.71;84.57
49461;BME280;35355;49.198;-0.368;2023-02-12T03:24:44;103058.50;;;7.68;84.49
49461;BME280;35355;49.198;-0.368;2023-02-12T03:27:25;103054.09;;;7.67;84.49
49461;BME280;35355;49.198;-0.368;2023-02-12T03:29:51;103054.28;;;7.66;84.32
49461;BME280;35355;49.198;-0.368;2023-02-12T03:32:39;103061.41;;;7.67;84.83
49461;BME280;35355;49.198;-0.368;2023-02-12T03:35:24;103051.56;;;7.66;84.44
49461;BME280;35355;49.198;-0.368;2023-02-12T03:40:27;103048.84;;;7.66;84.42
49461;BME280;35355;49.198;-0.368;2023-02-12T03:45:45;103048.84;;;7.66;84.63
49461;BME280;35355;49.198;-0.368;2023-02-12T03:48:27;103049.41;;;7.61;84.71
49461;BME280;35355;49.198;-0.368;2023-02-12T03:53:35;103058.75;;;7.59;84.89
49461;BME280;35355;49.198;-0.368;2023-02-12T03:56:09;103052.94;;;7.62;84.70
49461;BME280;35355;49.198;-0.368;2023-02-12T03:58:37;103057.56;;;7.61;84.41
49461;BME280;35355;49.198;-0.368;2023-02-12T04:01:04;103056.53;;;7.62;84.98
49461;BME280;35355;49.198;-0.368;2023-02-12T04:03:30;103045.84;;;7.61;84.63
49461;BME280;35355;49.198;-0.368;2023-02-12T04:05:56;103051.94;;;7.63;84.43
49461;BME280;35355;49.198;-0.368;2023-02-12T04:08:22;103051.75;;;7.64;84.36
49461;BME280;35355;49.198;-0.368;2023-02-12T04:18:39;103061.03;;;7.70;84.77
49461;BME280;35355;49.198;-0.368;2023-02-12T04:26:44;103047.63;;;7.68;84.41
49461;BME280;35355;49.198;-0.368;2023-02-12T04:29:35;103049.53;;;7.68;84.50
49461;BME280;35355;49.198;-0.368;2023-02-12T04:32:32;103051.94;;;7.63;84.17
49461;BME280;35355;49.198;-0.368;2023-02-12T04:35:21;103056.34;;;7.64;84.55
49461;BME280;35355;49.198;-0.368;2023-02-12T04:37:52;103059.25;;;7.62;84.55
49461;BME280;35355;49.198;-0.368;2023-02-12T04:40:20;103063.66;;;7.63;84.78
49461;BME280;35355;49.198;-0.368;2023-02-12T04:42:49;103050.91;;;7.64;84.48
49461;BME280;35355;49.198;-0.368;2023-02-12T04:45:20;103059.06;;;7.64;84.31
49461;BME280;35355;49.198;-0.368;2023-02-12T04:47:47;103050.91;;;7.64;84.38
49461;BME280;35355;49.198;-0.368;2023-02-12T04:50:12;103055.50;;;7.63;84.61
49461;BME280;35355;49.198;-0.368;2023-02-12T04:52:38;103050.22;;;7.62;84.52
49461;BME280;35355;49.198;-0.368;2023-02-12T04:55:03;103058.38;;;7.62;84.55
49461;BME280;35355;49.198;-0.368;2023-02-12T04:57:29;103055.03;;;7.60;84.30
49461;BME280;35355;49.198;-0.368;2023-02-12T04:59:54;103059.63;;;7.59;84.38
49461;BME280;35355;49.198;-0.368;2023-02-12T05:02:19;103057.91;;;7.58;84.81
49461;BME280;35355;49.198;-0.368;2023-02-12T05:04:45;103059.81;;;7.58;84.57
49461;BME280;35355;49.198;-0.368;2023-02-12T05:07:11;103069.63;;;7.59;84.50
49461;BME280;35355;49.198;-0.368;2023-02-12T05:09:36;103064.19;;;7.59;84.25
49461;BME280;35355;49.198;-0.368;2023-02-12T05:12:02;103058.94;;;7.57;84.52
49461;BME280;35355;49.198;-0.368;2023-02-12T05:14:27;103058.09;;;7.57;84.33
49461;BME280;35355;49.198;-0.368;2023-02-12T05:16:53;103057.47;;;7.54;84.17
49461;BME280;35355;49.198;-0.368;2023-02-12T05:19:18;103058.47;;;7.53;84.31
49461;BME280;35355;49.198;-0.368;2023-02-12T05:21:44;103048.81;;;7.51;84.57
49461;BME280;35355;49.198;-0.368;2023-02-12T05:24:09;103059.69;;;7.51;84.59
49461;BME280;35355;49.198;-0.368;2023-02-12T05:26:35;103047.31;;;7.48;84.35
49461;BME280;35355;49.198;-0.368;2023-02-12T05:29:00;103046.28;;;7.49;84.27
49461;BME280;35355;49.198;-0.368;2023-02-12T05:31:27;103043.56;;;7.49;84.64
49461;BME280;35355;49.198;-0.368;2023-02-12T05:52:27;103043.81;;;6.70;84.56
49461;BME280;35355;49.198;-0.368;2023-02-12T05:54:52;103046.53;;;6.70;84.62
49461;BME280;35355;49.198;-0.368;2023-02-12T05:57:18;103054.00;;;6.76;84.45
49461;BME280;35355;49.198;-0.368;2023-02-12T05:59:43;103039.69;;;6.82;85.03
49461;BME280;35355;49.198;-0.368;2023-02-12T06:02:08;103048.81;;;6.90;84.77
49461;BME280;35355;49.198;-0.368;2023-02-12T06:04:34;103048.75;;;6.98;85.07
49461;BME280;35355;49.198;-0.368;2023-02-12T06:06:59;103050.53;;;7.06;85.24
49461;BME280;35355;49.198;-0.368;2023-02-12T06:09:25;103050.84;;;7.11;85.02
49461;BME280;35355;49.198;-0.368;2023-02-12T06:11:51;103040.97;;;7.18;84.77
49461;BME280;35355;49.198;-0.368;2023-02-12T06:14:18;103036.84;;;7.22;85.42
49461;BME280;35355;49.198;-0.368;2023-02-12T06:16:45;103033.78;;;7.25;84.91
49461;BME280;35355;49.198;-0.368;2023-02-12T06:19:11;103037.81;;;7.29;84.99
49461;BME280;35355;49.198;-0.368;2023-02-12T06:21:37;103028.44;;;7.32;84.89
49461;BME280;35355;49.198;-0.368;2023-02-12T06:24:03;103026.59;;;7.32;84.97
49461;BME280;35355;49.198;-0.368;2023-02-12T06:26:29;103032.84;;;7.33;84.80
49461;BME280;35355;49.198;-0.368;2023-02-12T06:28:54;103024.06;;;7.31;85.37
49461;BME280;35355;49.198;-0.368;2023-02-12T06:31:21;103025.06;;;7.30;84.95
49461;BME280;35355;49.198;-0.368;2023-02-12T06:33:48;103024.06;;;7.31;85.22
49461;BME280;35355;49.198;-0.368;2023-02-12T06:36:14;103024.06;;;7.31;85.09
49461;BME280;35355;49.198;-0.368;2023-02-12T06:38:40;103020.66;;;7.29;84.97
49461;BME280;35355;49.198;-0.368;2023-02-12T06:41:05;103024.69;;;7.33;85.24
49461;BME280;35355;49.198;-0.368;2023-02-12T06:43:31;103015.91;;;7.31;84.79
49461;BME280;35355;49.198;-0.368;2023-02-12T06:45:59;103024.69;;;7.33;85.10
49461;BME280;35355;49.198;-0.368;2023-02-12T06:48:25;103020.66;;;7.29;85.28
49461;BME280;35355;49.198;-0.368;2023-02-12T06:50:51;103028.63;;;7.30;85.25
49461;BME280;35355;49.198;-0.368;2023-02-12T06:53:16;103031.16;;;7.32;85.17
49461;BME280;35355;49.198;-0.368;2023-02-12T06:55:41;103028.25;;;7.33;85.15
49461;BME280;35355;49.198;-0.368;2023-02-12T06:58:07;103023.69;;;7.34;85.05
49461;BME280;35355;49.198;-0.368;2023-02-12T07:00:32;103023.50;;;7.35;85.39
49461;BME280;35355;49.198;-0.368;2023-02-12T07:02:57;103029.59;;;7.37;85.42
49461;BME280;35355;49.198;-0.368;2023-02-12T07:05:23;103029.41;;;7.39;85.27
49461;BME280;35355;49.198;-0.368;2023-02-12T07:07:49;103021.25;;;7.39;84.96
49461;BME280;35355;49.198;-0.368;2023-02-12T07:10:15;103024.63;;;7.41;85.14
49461;BME280;35355;49.198;-0.368;2023-02-12T07:12:40;103029.03;;;7.42;84.91
49461;BME280;35355;49.198;-0.368;2023-02-12T07:15:06;103025.66;;;7.40;85.15
49461;BME280;35355;49.198;-0.368;2023-02-12T07:17:31;103029.03;;;7.42;84.97
49461;BME280;35355;49.198;-0.368;2023-02-12T07:19:57;103028.38;;;7.40;84.79
49461;BME280;35355;49.198;-0.368;2023-02-12T07:22:22;103026.03;;;7.37;84.90
49461;BME280;35355;49.198;-0.368;2023-02-12T07:24:47;103025.34;;;7.35;85.04
49461;BME280;35355;49.198;-0.368;2023-02-12T07:27:13;103029.13;;;7.34;84.94
49461;BME280;35355;49.198;-0.368;2023-02-12T07:29:39;103030.78;;;7.35;85.35
49461;BME280;35355;49.198;-0.368;2023-02-12T07:32:04;103035.38;;;7.34;84.64
49461;BME280;35355;49.198;-0.368;2023-02-12T07:34:30;103027.41;;;7.33;85.01
49461;BME280;35355;49.198;-0.368;2023-02-12T07:36:55;103033.69;;;7.33;85.17
49461;BME280;35355;49.198;-0.368;2023-02-12T07:39:20;103040.34;;;7.31;85.09
49461;BME280;35355;49.198;-0.368;2023-02-12T07:41:46;103044.91;;;7.30;84.96
49461;BME280;35355;49.198;-0.368;2023-02-12T07:44:12;103038.66;;;7.30;85.15
49461;BME280;35355;49.198;-0.368;2023-02-12T07:46:46;103044.09;;;7.30;84.59
49461;BME280;35355;49.198;-0.368;2023-02-12T07:49:20;103043.91;;;7.31;84.85
49461;BME280;35355;49.198;-0.368;2023-02-12T07:51:47;103046.44;;;7.33;84.88
49461;BME280;35355;49.198;-0.368;2023-02-12T07:54:13;103037.91;;;7.36;84.77
49461;BME280;35355;49.198;-0.368;2023-02-12T07:56:40;103037.91;;;7.36;85.24
49461;BME280;35355;49.198;-0.368;2023-02-12T07:59:09;103042.16;;;7.38;84.87
49461;BME280;35355;49.198;-0.368;2023-02-12T08:01:37;103040.94;;;7.41;84.94
49461;BME280;35355;49.198;-0.368;2023-02-12T08:04:08;103039.53;;;7.45;84.28
49461;BME280;35355;49.198;-0.368;2023-02-12T08:06:37;103038.69;;;7.45;84.79
49461;BME280;35355;49.198;-0.368;2023-02-12T08:09:05;103042.06;;;7.47;84.45
49461;BME280;35355;49.198;-0.368;2023-02-12T08:11:31;103037.47;;;7.47;84.74
49461;BME280;35355;49.198;-0.368;2023-02-12T08:13:58;103040.38;;;7.46;84.39
49461;BME280;35355;49.198;-0.368;2023-02-12T08:16:25;103044.78;;;7.47;84.47
49461;BME280;35355;49.198;-0.368;2023-02-12T08:18:50;103041.03;;;7.48;84.55
49461;BME280;35355;49.198;-0.368;2023-02-12T08:21:19;103045.63;;;7.47;84.55
49461;BME280;35355;49.198;-0.368;2023-02-12T08:23:45;103043.75;;;7.48;84.24
49461;BME280;35355;49.198;-0.368;2023-02-12T08:26:12;103051.34;;;7.52;84.17
49461;BME280;35355;49.198;-0.368;2023-02-12T08:28:41;103038.63;;;7.53;84.67
49461;BME280;35355;49.198;-0.368;2023-02-12T08:31:12;103041.34;;;7.53;84.31
49461;BME280;35355;49.198;-0.368;2023-02-12T08:33:38;103026.88;;;7.52;84.46
49461;BME280;35355;49.198;-0.368;2023-02-12T08:36:06;103025.56;;;7.48;84.21
49461;BME280;35355;49.198;-0.368;2023-02-12T08:38:32;103033.53;;;7.50;84.27
49461;BME280;35355;49.198;-0.368;2023-02-12T08:41:06;103021.81;;;7.49;84.39
49461;BME280;35355;49.198;-0.368;2023-02-12T08:43:32;103025.03;;;7.53;84.07
49461;BME280;35355;49.198;-0.368;2023-02-12T08:46:06;103038.25;;;7.56;83.77
49461;BME280;35355;49.198;-0.368;2023-02-12T08:48:31;103035.22;;;7.51;84.19
49461;BME280;35355;49.198;-0.368;2023-02-12T08:53:30;103042.25;;;7.45;83.61
49461;BME280;35355;49.198;-0.368;2023-02-12T08:55:55;103031.75;;;7.42;84.16
49461;BME280;35355;49.198;-0.368;2023-02-12T08:58:20;103033.44;;;7.43;84.35
49461;BME280;35355;49.198;-0.368;2023-02-12T09:00:45;103040.94;;;7.41;83.97
49461;BME280;35355;49.198;-0.368;2023-02-12T09:03:11;103042.63;;;7.42;84.06
49461;BME280;35355;49.198;-0.368;2023-02-12T09:05:39;103034.84;;;7.39;83.87
49461;BME280;35355;49.198;-0.368;2023-02-12T09:08:05;103043.66;;;7.41;84.15
49461;BME280;35355;49.198;-0.368;2023-02-12T09:10:31;103040.25;;;7.39;84.02
49461;BME280;35355;49.198;-0.368;2023-02-12T09:12:56;103045.50;;;7.41;84.09
49461;BME280;35355;49.198;-0.368;2023-02-12T09:15:21;103039.25;;;7.40;83.78
49461;BME280;35355;49.198;-0.368;2023-02-12T09:17:47;103050.56;;;7.44;84.22
49461;BME280;35355;49.198;-0.368;2023-02-12T09:20:12;103040.38;;;7.46;84.15
49461;BME280;35355;49.198;-0.368;2023-02-12T09:22:37;103049.38;;;7.46;84.23
49461;BME280;35355;49.198;-0.368;2023-02-12T09:25:04;103042.06;;;7.47;83.71
49461;BME280;35355;49.198;-0.368;2023-02-12T09:27:30;103055.28;;;7.50;83.98
49461;BME280;35355;49.198;-0.368;2023-02-12T09:29:55;103056.59;;;7.54;83.49
49461;BME280;35355;49.198;-0.368;2023-02-12T09:32:21;103048.81;;;7.51;83.53
49461;BME280;35355;49.198;-0.368;2023-02-12T09:34:46;103062.53;;;7.58;83.49
49461;BME280;35355;49.198;-0.368;2023-02-12T09:37:11;103069.25;;;7.62;83.86
49461;BME280;35355;49.198;-0.368;2023-02-12T09:39:37;103074.34;;;7.65;83.91
49461;BME280;35355;49.198;-0.368;2023-02-12T09:42:23;103078.38;;;7.69;83.64
49461;BME280;35355;49.198;-0.368;2023-02-12T09:48:13;103082.41;;;7.73;83.49
49461;BME280;35355;49.198;-0.368;2023-02-12T09:53:17;103082.03;;;7.76;83.33
49461;BME280;35355;49.198;-0.368;2023-02-12T09:55:44;103076.22;;;7.79;83.03
49461;BME280;35355;49.198;-0.368;2023-02-12T09:58:37;103072.50;;;7.80;83.23
49461;BME280;35355;49.198;-0.368;2023-02-12T10:01:10;103070.91;;;7.86;83.46
49461;BME280;35355;49.198;-0.368;2023-02-12T10:03:36;103065.94;;;7.89;82.96
49461;BME280;35355;49.198;-0.368;2023-02-12T10:06:06;103069.13;;;7.93;83.22
49461;BME280;35355;49.198;-0.368;2023-02-12T10:21:57;103079.06;;;8.01;83.08
49461;BME280;35355;49.198;-0.368;2023-02-12T10:24:38;103075.34;;;8.02;82.34
49461;BME280;35355;49.198;-0.368;2023-02-12T10:27:14;103075.34;;;8.02;82.80
49461;BME280;35355;49.198;-0.368;2023-02-12T10:29:41;103076.34;;;8.01;82.61
49461;BME280;35355;49.198;-0.368;2023-02-12T10:32:26;103082.63;;;8.01;82.59
49461;BME280;35355;49.198;-0.368;2023-02-12T10:34:55;103075.72;;;7.99;82.13
49461;BME280;35355;49.198;-0.368;2023-02-12T10:40:05;103071.56;;;8.03;82.14
49461;BME280;35355;49.198;-0.368;2023-02-12T10:42:42;103079.34;;;8.06;82.24
49461;BME280;35355;49.198;-0.368;2023-02-12T10:45:16;103086.47;;;8.07;82.27
49461;BME280;35355;49.198;-0.368;2023-02-12T10:47:48;103075.78;;;8.05;82.13
49461;BME280;35355;49.198;-0.368;2023-02-12T10:50:23;103075.78;;;8.05;81.99
49461;BME280;35355;49.198;-0.368;2023-02-12T10:52:55;103079.19;;;8.07;82.19
49461;BME280;35355;49.198;-0.368;2023-02-12T10:55:23;103078.63;;;8.12;82.01
49461;BME280;35355;49.198;-0.368;2023-02-12T10:57:49;103079.91;;;8.16;81.96
49461;BME280;35355;49.198;-0.368;2023-02-12T11:00:24;103075.97;;;8.19;81.98
49461;BME280;35355;49.198;-0.368;2023-02-12T11:05:28;103080.66;;;8.25;81.58
49461;BME280;35355;49.198;-0.368;2023-02-12T11:07:54;103084.50;;;8.31;81.67
49461;BME280;35355;49.198;-0.368;2023-02-12T11:10:40;103075.38;;;8.38;81.76
49461;BME280;35355;49.198;-0.368;2023-02-12T11:13:22;103079.94;;;8.46;81.59
49461;BME280;35355;49.198;-0.368;2023-02-12T11:15:48;103078.50;;;8.50;80.89
49461;BME280;35355;49.198;-0.368;2023-02-12T11:18:23;103080.50;;;8.56;81.14
49461;BME280;35355;49.198;-0.368;2023-02-12T11:20:50;103070.69;;;8.62;80.88
49461;BME280;35355;49.198;-0.368;2023-02-12T11:23:41;103060.47;;;8.64;80.86
49461;BME280;35355;49.198;-0.368;2023-02-12T11:31:21;103060.03;;;8.82;80.36
49461;BME280;35355;49.198;-0.368;2023-02-12T11:36:40;103056.69;;;8.80;79.92
49461;BME280;35355;49.198;-0.368;2023-02-12T11:39:23;103052.50;;;8.84;80.08
49461;BME280;35355;49.198;-0.368;2023-02-12T11:41:55;103043.31;;;8.85;79.81
49461;BME280;35355;49.198;-0.368;2023-02-12T11:44:29;103043.31;;;8.85;79.86
49461;BME280;35355;49.198;-0.368;2023-02-12T11:47:00;103045.00;;;8.86;79.66
49461;BME280;35355;49.198;-0.368;2023-02-12T11:49:32;103040.88;;;8.90;79.27
49461;BME280;35355;49.198;-0.368;2023-02-12T11:52:00;103035.22;;;8.92;79.18
49461;BME280;35355;49.198;-0.368;2023-02-12T11:54:29;103040.47;;;8.93;79.34
49461;BME280;35355;49.198;-0.368;2023-02-12T11:56:58;103039.41;;;8.94;79.30
49461;BME280;35355;49.198;-0.368;2023-02-12T11:59:38;103030.88;;;8.98;79.40
49461;BME280;35355;49.198;-0.368;2023-02-12T12:04:45;103011.97;;;8.96;79.30
49461;BME280;35355;49.198;-0.368;2023-02-12T12:07:18;103018.72;;;9.00;79.03
49461;BME280;35355;49.198;-0.368;2023-02-12T12:09:52;103015.41;;;9.05;79.02
49461;BME280;35355;49.198;-0.368;2023-02-12T12:12:24;103013.78;;;9.10;79.07
49461;BME280;35355;49.198;-0.368;2023-02-12T12:15:01;103008.41;;;9.17;78.83
49461;BME280;35355;49.198;-0.368;2023-02-12T12:17:59;103002.19;;;9.23;79.10
49461;BME280;35355;49.198;-0.368;2023-02-12T12:20:55;103004.38;;;9.35;78.78
49461;BME280;35355;49.198;-0.368;2023-02-12T12:23:39;102993.50;;;9.41;78.74
49461;BME280;35355;49.198;-0.368;2023-02-12T12:26:11;102999.03;;;9.48;78.37
49461;BME280;35355;49.198;-0.368;2023-02-12T12:31:33;102986.72;;;9.59;77.27
49461;BME280;35355;49.198;-0.368;2023-02-12T12:34:07;102977.91;;;9.63;78.00
49461;BME280;35355;49.198;-0.368;2023-02-12T12:39:35;102963.88;;;9.66;77.78
49461;BME280;35355;49.198;-0.368;2023-02-12T12:42:36;102963.06;;;9.66;77.86
49461;BME280;35355;49.198;-0.368;2023-02-12T12:45:41;102951.31;;;9.65;77.70
49461;BME280;35355;49.198;-0.368;2023-02-12T13:18:11;102932.91;;;9.81;77.09
49461;BME280;35355;49.198;-0.368;2023-02-12T13:31:27;102918.06;;;9.48;76.54
49461;BME280;35355;49.198;-0.368;2023-02-12T13:34:00;102926.84;;;9.44;77.00
49461;BME280;35355;49.198;-0.368;2023-02-12T13:36:27;102918.81;;;9.36;76.89
49461;BME280;35355;49.198;-0.368;2023-02-12T13:39:35;102917.56;;;9.32;77.58
49461;BME280;35355;49.198;-0.368;2023-02-12T13:42:51;102913.53;;;9.27;77.26
49461;BME280;35355;49.198;-0.368;2023-02-12T13:45:28;102918.72;;;9.22;77.45
49461;BME280;35355;49.198;-0.368;2023-02-12T13:56:31;102902.66;;;8.99;77.77
49461;BME280;35355;49.198;-0.368;2023-02-12T13:58:59;102896.13;;;8.93;77.64
49461;BME280;35355;49.198;-0.368;2023-02-12T14:21:39;102898.94;;;8.20;78.70
49461;BME280;35355;49.198;-0.368;2023-02-12T14:26:59;102891.19;;;8.17;80.10
49461;BME280;35355;49.198;-0.368;2023-02-12T14:29:25;102886.00;;;8.22;79.06
49461;BME280;35355;49.198;-0.368;2023-02-12T14:31:50;102883.44;;;8.36;79.05
49461;BME280;35355;49.198;-0.368;2023-02-12T14:36:43;102886.94;;;8.51;79.07
49461;BME280;35355;49.198;-0.368;2023-02-12T14:41:44;102869.19;;;8.55;78.96
49461;BME280;35355;49.198;-0.368;2023-02-12T14:49:18;102874.69;;;8.62;78.93
49461;BME280;35355;49.198;-0.368;2023-02-12T14:52:00;102871.31;;;8.60;78.53
49461;BME280;35355;49.198;-0.368;2023-02-12T14:54:53;102868.78;;;8.58;79.04
49461;BME280;35355;49.198;-0.368;2023-02-12T15:00:13;102858.22;;;8.49;78.73
49461;BME280;35355;49.198;-0.368;2023-02-12T15:02:42;102865.75;;;8.47;78.76
49461;BME280;35355;49.198;-0.368;2023-02-12T15:05:21;102859.69;;;8.45;79.00
49461;BME280;35355;49.198;-0.368;2023-02-12T15:07:52;102869.88;;;8.42;78.96
49461;BME280;35355;49.198;-0.368;2023-02-12T15:10:28;102868.38;;;8.40;78.82
49461;BME280;35355;49.198;-0.368;2023-02-12T15:16:02;102855.53;;;8.34;79.06
49461;BME280;35355;49.198;-0.368;2023-02-12T15:21:27;102862.88;;;8.33;78.93
49461;BME280;35355;49.198;-0.368;2023-02-12T15:24:11;102848.69;;;8.38;79.32
49461;BME280;35355;49.198;-0.368;2023-02-12T15:26:51;102850.66;;;8.44;79.05
49461;BME280;35355;49.198;-0.368;2023-02-12T15:29:35;102847.66;;;8.39;79.01
49461;BME280;35355;49.198;-0.368;2023-02-12T15:32:06;102855.53;;;8.34;78.90
49461;BME280;35355;49.198;-0.368;2023-02-12T15:34:36;102849.66;;;8.30;79.01
49461;BME280;35355;49.198;-0.368;2023-02-12T15:37:06;102850.25;;;8.25;79.07
49461;BME280;35355;49.198;-0.368;2023-02-12T15:39:42;102839.97;;;8.21;79.00
49461;BME280;35355;49.198;-0.368;2023-02-12T15:42:31;102854.78;;;8.18;79.10
49461;BME280;35355;49.198;-0.368;2023-02-12T15:47:41;102846.69;;;8.03;79.12
49461;BME280;35355;49.198;-0.368;2023-02-12T15:50:16;102845.19;;;8.01;79.22
49461;BME280;35355;49.198;-0.368;2023-02-12T15:52:44;102847.25;;;7.99;79.08
49461;BME280;35355;49.198;-0.368;2023-02-12T15:55:18;102850.34;;;7.96;79.51
49461;BME280;35355;49.198;-0.368;2023-02-12T15:57:59;102849.69;;;7.94;79.09
49461;BME280;35355;49.198;-0.368;2023-02-12T16:03:01;102839.22;;;7.90;79.31
49461;BME280;35355;49.198;-0.368;2023-02-12T16:05:27;102841.28;;;7.88;79.13
49461;BME280;35355;49.198;-0.368;2023-02-12T16:07:53;102842.13;;;7.89;79.22
49461;BME280;35355;49.198;-0.368;2023-02-12T16:10:19;102850.28;;;7.89;79.64
49461;BME280;35355;49.198;-0.368;2023-02-12T16:12:46;102846.06;;;7.86;79.83
49461;BME280;35355;49.198;-0.368;2023-02-12T16:15:28;102844.41;;;7.85;79.58
49461;BME280;35355;49.198;-0.368;2023-02-12T16:17:55;102850.19;;;7.82;79.86
49461;BME280;35355;49.198;-0.368;2023-02-12T16:20:24;102848.72;;;7.80;79.68